| time (UTC) | temp C | wind direction | speed KPH | gust KPH | rain 1hr cm | rain 24hr cm | rain mn cm | humidity % | barometer mb |
| 20260906083103 | 25 | 348 | 3.2 | 12.9 | 0.00 | 0.03 | 0.00 | 82 | 1014.7 |
| 20260906081602 | 26 | 284 | 1.6 | 16.1 | 0.00 | 0.03 | 0.00 | 84 | 1015.0 |
| 20260906080109 | 25 | 0 | 0.0 | 8.0 | 0.00 | 0.03 | 0.00 | 94 | 1014.9 |
| 20260906074602 | 24 | 0 | 0.0 | 0.0 | 0.00 | 0.03 | 0.00 | 94 | 1014.6 |
| 20260906073101 | 25 | 0 | 0.0 | 0.0 | 0.00 | 0.03 | 0.00 | 94 | 1014.8 |
| 20260906071602 | 25 | 0 | 0.0 | 1.6 | 0.00 | 0.03 | 0.00 | 93 | 1015.0 |
| 20260906070105 | 25 | 0 | 0.0 | 6.4 | 0.00 | 0.03 | 0.00 | 92 | 1015.0 |
| 20260906064603 | 25 | 352 | 4.8 | 19.3 | 0.00 | 0.03 | 0.00 | 96 | 1015.0 |
| 20260906063102 | 24 | 0 | 0.0 | 0.0 | 0.00 | 0.03 | 0.00 | 97 | 1014.5 |
| 20260906061605 | 24 | 0 | 0.0 | 0.0 | 0.00 | 0.03 | 0.00 | 97 | 1014.3 |
| 20260906054608 | 24 | 0 | 0.0 | 0.0 | 0.00 | 0.03 | 0.00 | 97 | 1014.2 |
| 20260906053057 | 24 | 0 | 0.0 | 0.0 | 0.00 | 0.03 | 0.00 | 97 | 1014.2 |
| 20260906051600 | 24 | 0 | 0.0 | 0.0 | 0.00 | 0.03 | 0.00 | 97 | 1014.5 |
| 20260906050121 | 24 | 0 | 0.0 | 0.0 | 0.00 | 0.03 | 0.00 | 96 | 1014.3 |
| 20260906044603 | 24 | 0 | 0.0 | 0.0 | 0.00 | 0.03 | 0.03 | 96 | 1014.5 |
| 20260906043059 | 24 | 0 | 0.0 | 0.0 | 0.00 | 0.03 | 0.03 | 96 | 1014.6 |
| 20260906041600 | 24 | 0 | 0.0 | 0.0 | 0.00 | 0.03 | 0.03 | 96 | 1014.7 |
| 20260906040133 | 23 | 0 | 0.0 | 0.0 | 0.00 | 0.03 | 0.03 | 95 | 1015.0 |
| 20260906034601 | 23 | 0 | 0.0 | 0.0 | 0.00 | 0.03 | 0.03 | 95 | 1014.9 |
| 20260906033111 | 23 | 0 | 0.0 | 0.0 | 0.00 | 0.03 | 0.03 | 94 | 1014.7 |
| 20260906031602 | 24 | 0 | 0.0 | 0.0 | 0.00 | 0.03 | 0.03 | 94 | 1014.7 |
| 20260906030100 | 24 | 0 | 0.0 | 0.0 | 0.00 | 0.03 | 0.03 | 94 | 1014.6 |
| 20260906024616 | 24 | 0 | 0.0 | 0.0 | 0.00 | 0.03 | 0.03 | 93 | 1014.5 |
| 20260906023104 | 24 | 0 | 0.0 | 0.0 | 0.00 | 0.03 | 0.03 | 92 | 1014.2 |
| 20260906021605 | 24 | 0 | 0.0 | 0.0 | 0.00 | 0.03 | 0.03 | 91 | 1014.1 |
| 20260906020123 | 24 | 0 | 0.0 | 0.0 | 0.00 | 0.03 | 0.03 | 91 | 1014.2 |
| 20260906014611 | 24 | 0 | 0.0 | 0.0 | 0.00 | 0.03 | 0.03 | 90 | 1014.2 |
| 20260906013103 | 25 | 0 | 0.0 | 0.0 | 0.00 | 0.03 | 0.03 | 90 | 1013.9 |
| 20260906011605 | 25 | 0 | 0.0 | 0.0 | 0.00 | 0.03 | 0.03 | 90 | 1013.5 |
| 20260906010106 | 25 | 0 | 0.0 | 0.0 | 0.00 | 0.03 | 0.03 | 88 | 1013.1 |
| 20260906004602 | 26 | 0 | 0.0 | 0.0 | 0.00 | 0.03 | 0.03 | 87 | 1013.1 |
| 20260906003101 | 26 | 0 | 0.0 | 0.0 | 0.00 | 0.03 | 0.03 | 85 | 1013.0 |
| 20260906001559 | 26 | 0 | 0.0 | 0.0 | 0.00 | 0.03 | 0.03 | 85 | 1012.9 |
| 20260906000100 | 26 | 0 | 0.0 | 0.0 | 0.00 | 0.03 | 0.03 | 87 | 1013.3 |
| 20260905234612 | 26 | 0 | 0.0 | 1.6 | 0.03 | 0.03 | 0.03 | 88 | 1013.5 |
| 20260905233101 | 27 | 0 | 0.0 | 0.0 | 0.03 | 0.03 | 0.03 | 89 | 1013.4 |
| 20260905231559 | 27 | 0 | 0.0 | 1.6 | 0.03 | 0.03 | 0.03 | 87 | 1013.5 |
| 20260905230125 | 27 | 0 | 0.0 | 0.0 | 0.03 | 0.03 | 0.03 | 86 | 1013.3 |
| 20260905224602 | 26 | 0 | 0.0 | 0.0 | 0.00 | 0.00 | 0.00 | 87 | 1013.1 |
| 20260905223100 | 27 | 0 | 0.0 | 4.8 | 0.00 | 0.00 | 0.00 | 84 | 1013.2 |
| 20260905221600 | 28 | 0 | 0.0 | 6.4 | 0.00 | 0.00 | 0.00 | 75 | 1013.5 |
| 20260905220110 | 30 | 193 | 9.7 | 25.7 | 0.00 | 0.00 | 0.00 | 65 | 1013.8 |
| 20260905214559 | 31 | 0 | 1.6 | 14.5 | 0.00 | 0.00 | 0.00 | 60 | 1013.1 |
| 20260905213059 | 32 | 360 | 9.7 | 25.7 | 0.00 | 0.00 | 0.00 | 56 | 1013.4 |
| 20260905211605 | 37 | 180 | 1.6 | 4.8 | 0.00 | 0.00 | 0.00 | 52 | 1013.1 |
| 20260905204559 | 36 | 174 | 4.8 | 9.7 | 0.00 | 0.00 | 0.00 | 53 | 1012.9 |
| 20260905203105 | 37 | 0 | 0.0 | 4.8 | 0.00 | 0.00 | 0.00 | 51 | 1013.1 |
| 20260905201606 | 37 | 180 | 0.0 | 8.0 | 0.00 | 0.00 | 0.00 | 51 | 1013.3 |
| 20260905200108 | 37 | 190 | 1.6 | 8.0 | 0.00 | 0.00 | 0.00 | 54 | 1013.5 |
| 20260905194605 | 37 | 0 | 1.6 | 6.4 | 0.00 | 0.00 | 0.00 | 51 | 1013.7 |
| 20260905193114 | 36 | 0 | 1.6 | 6.4 | 0.00 | 0.00 | 0.00 | 52 | 1014.0 |
| 20260905191602 | 37 | 0 | 0.0 | 6.4 | 0.00 | 0.00 | 0.00 | 48 | 1014.1 |
| 20260905184605 | 36 | 229 | 1.6 | 6.4 | 0.00 | 0.00 | 0.00 | 56 | 1014.5 |
| 20260905183104 | 36 | 269 | 1.6 | 4.8 | 0.00 | 0.00 | 0.00 | 52 | 1014.6 |
| 20260905181602 | 36 | 269 | 1.6 | 6.4 | 0.00 | 0.00 | 0.00 | 53 | 1014.8 |
| 20260905174608 | 35 | 269 | 1.6 | 6.4 | 0.00 | 0.00 | 0.00 | 62 | 1015.0 |
| 20260905173102 | 35 | 269 | 0.0 | 4.8 | 0.00 | 0.00 | 0.00 | 59 | 1015.2 |
| 20260905171606 | 34 | 269 | 1.6 | 6.4 | 0.00 | 0.00 | 0.00 | 68 | 1015.5 |
| 20260905164556 | 33 | 305 | 1.6 | 4.8 | 0.00 | 0.00 | 0.00 | 72 | 1015.8 |
| 20260905163059 | 33 | 305 | 1.6 | 4.8 | 0.00 | 0.00 | 0.00 | 73 | 1015.9 |
| 20260905161601 | 33 | 0 | 1.6 | 6.4 | 0.00 | 0.00 | 0.00 | 74 | 1016.2 |
| 20260905160100 | 33 | 309 | 1.6 | 6.4 | 0.00 | 0.00 | 0.00 | 73 | 1016.4 |
| 20260905154607 | 32 | 311 | 1.6 | 4.8 | 0.00 | 0.00 | 0.00 | 75 | 1016.5 |
| 20260905153057 | 31 | 312 | 1.6 | 8.0 | 0.00 | 0.00 | 0.00 | 81 | 1016.6 |
| 20260905151603 | 30 | 345 | 3.2 | 8.0 | 0.00 | 0.00 | 0.00 | 81 | 1016.6 |
| 20260905150111 | 30 | 336 | 3.2 | 6.4 | 0.00 | 0.00 | 0.00 | 81 | 1016.6 |
| 20260905144558 | 30 | 344 | 3.2 | 6.4 | 0.00 | 0.00 | 0.00 | 82 | 1016.5 |
| 20260905143056 | 29 | 0 | 0.0 | 6.4 | 0.00 | 0.00 | 0.00 | 84 | 1016.5 |
| 20260905141600 | 28 | 346 | 1.6 | 6.4 | 0.00 | 0.00 | 0.00 | 87 | 1016.8 |
| 20260905134601 | 27 | 342 | 3.2 | 8.0 | 0.00 | 0.00 | 0.00 | 90 | 1016.9 |
| 20260905133104 | 27 | 0 | 0.0 | 4.8 | 0.00 | 0.00 | 0.00 | 93 | 1017.0 |
| 20260905131559 | 26 | 0 | 0.0 | 4.8 | 0.00 | 0.00 | 0.00 | 99 | 1017.1 |
| 20260905124602 | 25 | 0 | 0.0 | 0.0 | 0.00 | 0.00 | 0.00 | 100 | 1017.1 |
| 20260905123057 | 25 | 0 | 0.0 | 0.0 | 0.00 | 0.00 | 0.00 | 99 | 1017.1 |
| 20260905121604 | 24 | 0 | 0.0 | 0.0 | 0.00 | 0.00 | 0.00 | 99 | 1017.1 |
| 20260905114556 | 23 | 0 | 0.0 | 0.0 | 0.00 | 0.00 | 0.00 | 99 | 1016.7 |
| 20260905113111 | 23 | 0 | 0.0 | 0.0 | 0.00 | 0.00 | 0.00 | 99 | 1016.4 |
| 20260905111602 | 23 | 0 | 0.0 | 0.0 | 0.00 | 0.00 | 0.00 | 99 | 1016.1 |
| 20260905110101 | 23 | 0 | 0.0 | 0.0 | 0.00 | 0.00 | 0.00 | 99 | 1016.0 |
| 20260905104600 | 23 | 0 | 0.0 | 0.0 | 0.00 | 0.00 | 0.00 | 99 | 1015.8 |
| 20260905103059 | 23 | 0 | 0.0 | 0.0 | 0.00 | 0.00 | 0.00 | 99 | 1015.7 |
| 20260905101603 | 23 | 0 | 0.0 | 0.0 | 0.00 | 0.00 | 0.00 | 99 | 1015.6 |
| 20260905100109 | 23 | 0 | 0.0 | 0.0 | 0.00 | 0.00 | 0.00 | 99 | 1015.5 |
| 20260905094557 | 24 | 0 | 0.0 | 0.0 | 0.00 | 0.00 | 0.00 | 99 | 1015.7 |
| 20260905093105 | 24 | 0 | 0.0 | 0.0 | 0.00 | 0.00 | 0.00 | 99 | 1015.6 |
| 20260905091604 | 24 | 0 | 0.0 | 0.0 | 0.00 | 0.00 | 0.00 | 99 | 1015.5 |
| 20260905090103 | 24 | 0 | 0.0 | 0.0 | 0.00 | 0.00 | 0.00 | 99 | 1015.4 |
| 20260905084600 | 24 | 0 | 0.0 | 0.0 | 0.00 | 0.00 | 0.00 | 99 | 1015.4 |